Time;durP1;ratioP1;P1;durP2;ratioP2;P2;SDS_P1;SDS_P2;PMS_P1;PMS_P2;Temp;Humidity;BMP_temperature;BMP_pressure;BME280_temperature;BME280_humidity;BME280_pressure;Samples;Min_cycle;Max_cycle;Signal;HPM_P1;HPM_P2
2023/03/07 00:03:21;;;;;;;3.38;1.33;;;8.50;99.90;;;;;;10431621;28;20634;-31
2023/03/07 00:08:23;;;;;;;11.85;2.03;;;9.60;99.90;;;;;;10431445;28;20131;-24
2023/03/07 00:13:26;;;;;;;7.82;2.72;;;10.80;99.90;;;;;;10446497;28;20110;-26
2023/03/07 00:18:30;;;;;;;;;;;8.60;99.90;;;;;;10439953;28;20140;-23
2023/03/07 00:23:32;;;;;;;6.43;2.72;;;10.00;99.90;;;;;;10428469;28;20276;-24
2023/03/07 00:28:34;;;;;;;5.27;2.43;;;9.60;99.90;;;;;;10423723;28;20122;-22
2023/03/07 00:33:38;;;;;;;6.37;2.03;;;9.10;99.90;;;;;;10425645;28;20073;-22
2023/03/07 00:38:41;;;;;;;5.25;2.20;;;10.30;99.90;;;;;;10416377;28;20132;-24
2023/03/07 00:43:44;;;;;;;10.15;2.35;;;9.60;99.90;;;;;;10428139;28;20418;-22
2023/03/07 00:48:47;;;;;;;;;;;10.40;99.90;;;;;;10434066;28;20049;-24
2023/03/07 00:53:50;;;;;;;7.40;2.13;;;8.60;99.90;;;;;;10430204;28;20469;-22
2023/03/07 00:58:52;;;;;;;5.18;2.13;;;10.10;99.90;;;;;;10430320;28;20049;-23
2023/03/07 01:03:56;;;;;;;9.32;1.88;;;10.00;99.90;;;;;;10438765;28;20052;-23
2023/03/07 01:09:01;;;;;;;6.18;2.03;;;10.60;99.90;;;;;;10438146;28;20068;-23
2023/03/07 01:14:05;;;;;;;5.13;2.25;;;11.10;99.90;;;;;;10440101;28;20079;-23
2023/03/07 01:19:12;;;;;;;10.10;2.78;;;9.20;99.90;;;;;;10443147;28;20098;-23
2023/03/07 01:24:15;;;;;;;9.82;2.17;;;9.50;99.90;;;;;;10430924;28;20053;-23
2023/03/07 01:29:17;;;;;;;7.32;2.70;;;10.20;99.90;;;;;;10428870;28;20052;-23
2023/03/07 01:34:20;;;;;;;10.13;2.85;;;9.40;99.60;;;;;;10438108;28;20106;-22
2023/03/07 01:39:22;;;;;;;10.23;2.65;;;9.20;99.90;;;;;;10438818;28;20090;-23
2023/03/07 01:44:25;;;;;;;7.03;1.63;;;9.50;99.90;;;;;;10447302;28;20424;-23
2023/03/07 01:49:32;;;;;;;10.50;4.03;;;11.70;99.90;;;;;;10442883;28;20037;-23
2023/03/07 01:54:37;;;;;;;5.05;1.95;;;8.70;99.90;;;;;;10428873;28;20099;-23
2023/03/07 01:59:44;;;;;;;7.32;1.92;;;9.30;99.90;;;;;;10433884;28;20864;-23
2023/03/07 02:04:52;;;;;;;4.65;1.65;;;10.30;97.70;;;;;;10430115;28;20052;-24
2023/03/07 02:09:56;;;;;;;6.22;2.25;;;11.00;97.20;;;;;;10436006;28;20488;-23
2023/03/07 02:14:58;;;;;;;6.28;2.90;;;10.80;99.90;;;;;;10432877;28;20603;-22
2023/03/07 02:20:14;;;;;;;9.10;2.08;;;10.40;98.30;;;;;;10442616;28;20170;-23
2023/03/07 02:25:21;;;;;;;6.10;1.67;;;10.70;99.90;;;;;;10428966;28;20045;-23
2023/03/07 02:30:25;;;;;;;10.52;2.85;;;10.00;99.90;;;;;;10436301;28;20041;-26
2023/03/07 02:35:27;;;;;;;9.82;2.70;;;10.50;99.90;;;;;;10450359;28;20036;-22
2023/03/07 02:40:31;;;;;;;9.50;1.98;;;10.60;99.10;;;;;;10440780;28;20132;-24
2023/03/07 02:45:34;;;;;;;2.83;1.33;;;11.00;99.90;;;;;;10423492;28;20114;-23
2023/03/07 02:50:36;;;;;;;3.67;1.73;;;11.00;99.90;;;;;;10446713;28;20041;-24
2023/03/07 02:55:38;;;;;;;3.73;1.63;;;10.10;99.90;;;;;;10420998;28;20140;-23
2023/03/07 03:00:41;;;;;;;10.43;1.98;;;10.60;99.90;;;;;;10427417;28;20079;-23
2023/03/07 03:05:43;;;;;;;4.93;1.50;;;10.40;99.90;;;;;;10423691;28;20064;-23
2023/03/07 03:10:45;;;;;;;5.15;1.73;;;12.50;94.40;;;;;;10437918;28;20040;-24
2023/03/07 03:15:50;;;;;;;2.33;1.42;;;11.20;99.90;;;;;;10431805;28;20053;-24
2023/03/07 03:20:52;;;;;;;5.65;1.50;;;12.30;97.10;;;;;;10428506;28;20052;-25
2023/03/07 03:26:00;;;;;;;6.20;2.90;;;11.10;99.90;;;;;;10423009;28;20343;-23
2023/03/07 03:31:05;;;;;;;4.13;2.72;;;9.30;99.90;;;;;;10435732;28;20048;-24
2023/03/07 03:36:10;;;;;;;4.68;2.90;;;9.50;99.90;;;;;;10442313;28;20139;-24
2023/03/07 03:41:14;;;;;;;9.02;2.60;;;9.00;99.90;;;;;;10445320;28;20072;-23
2023/03/07 03:46:18;;;;;;;10.30;6.28;;;9.40;99.90;;;;;;10437499;28;20392;-24
2023/03/07 03:51:20;;;;;;;5.57;2.95;;;8.30;99.90;;;;;;10436084;28;20048;-24
2023/03/07 03:56:24;;;;;;;6.33;1.83;;;11.00;99.90;;;;;;10429744;28;20131;-25
2023/03/07 04:01:28;;;;;;;4.85;1.45;;;9.70;99.90;;;;;;10436995;28;20463;-25
2023/03/07 04:06:32;;;;;;;5.18;1.35;;;12.40;98.20;;;;;;10426712;28;20049;-26
2023/03/07 04:11:34;;;;;;;2.72;0.95;;;13.20;95.80;;;;;;10433537;28;20042;-26
2023/03/07 04:16:38;;;;;;;3.53;0.90;;;12.90;96.90;;;;;;10437007;28;20402;-25
2023/03/07 04:21:40;;;;;;;7.45;1.08;;;13.90;90.30;;;;;;10427708;28;20045;-24
2023/03/07 04:26:42;;;;;;;3.17;1.15;;;13.20;91.80;;;;;;10433952;28;20052;-24
2023/03/07 04:31:45;;;;;;;4.10;1.20;;;13.40;94.10;;;;;;10438302;28;20048;-24
2023/03/07 04:36:47;;;;;;;5.68;0.85;;;13.00;80.80;;;;;;10436939;28;20072;-25
2023/03/07 04:41:49;;;;;;;4.25;1.20;;;12.00;97.10;;;;;;10450570;28;20037;-24
2023/03/07 04:46:52;;;;;;;2.00;0.70;;;13.30;88.70;;;;;;10434409;28;20448;-24
2023/03/07 04:51:54;;;;;;;3.53;0.80;;;13.00;91.70;;;;;;10442808;28;20075;-24
2023/03/07 04:56:56;;;;;;;1.27;0.60;;;13.60;88.90;;;;;;10429354;28;20076;-24
2023/03/07 05:01:59;;;;;;;3.05;0.70;;;14.90;79.10;;;;;;10438526;28;20103;-22
2023/03/07 05:07:01;;;;;;;4.88;0.93;;;12.70;92.40;;;;;;10438671;28;20049;-24
2023/03/07 05:12:03;;;;;;;2.43;0.70;;;12.10;95.80;;;;;;10430686;28;20056;-24
2023/03/07 05:17:06;;;;;;;2.72;0.57;;;14.20;85.00;;;;;;10451834;28;20048;-24
2023/03/07 05:22:09;;;;;;;1.30;0.65;;;13.50;90.50;;;;;;10423606;28;20033;-23
2023/03/07 05:27:11;;;;;;;5.47;1.25;;;13.30;90.50;;;;;;10439626;28;20071;-22
2023/03/07 05:32:14;;;;;;;0.83;0.40;;;11.00;93.20;;;;;;10426044;28;20041;-23
2023/03/07 05:37:16;;;;;;;2.83;0.45;;;14.30;89.00;;;;;;10416493;28;20049;-23
2023/03/07 05:42:18;;;;;;;1.07;0.60;;;11.40;92.00;;;;;;10439832;28;20061;-24
2023/03/07 05:47:21;;;;;;;1.50;0.67;;;13.60;90.80;;;;;;10434779;28;20087;-23
2023/03/07 05:52:23;;;;;;;1.70;0.50;;;12.90;91.20;;;;;;10437439;28;20037;-22
2023/03/07 05:57:25;;;;;;;2.40;0.80;;;14.60;82.90;;;;;;10422049;28;20056;-23
2023/03/07 06:02:28;;;;;;;1.80;0.70;;;13.30;94.30;;;;;;10429094;28;20874;-24
2023/03/07 06:07:30;;;;;;;2.08;0.57;;;13.20;77.20;;;;;;10446248;28;20487;-24
2023/03/07 06:12:32;;;;;;;1.70;0.60;;;13.70;91.00;;;;;;10431500;28;20481;-24
2023/03/07 06:17:35;;;;;;;1.33;0.60;;;14.20;84.40;;;;;;10433213;28;20540;-24
2023/03/07 06:22:38;;;;;;;1.20;0.57;;;12.30;77.40;;;;;;10434876;28;20041;-24
2023/03/07 06:27:40;;;;;;;2.15;0.82;;;14.90;82.50;;;;;;10423472;28;20466;-24
2023/03/07 06:32:43;;;;;;;1.00;0.33;;;14.00;90.50;;;;;;10444355;28;20052;-24
2023/03/07 06:37:45;;;;;;;2.40;0.60;;;13.90;84.70;;;;;;10433660;28;20544;-22
2023/03/07 06:42:46;;;;;;;2.07;0.40;;;14.20;68.60;;;;;;10435538;28;20053;-24
2023/03/07 06:47:50;;;;;;;0.97;0.50;;;13.50;89.10;;;;;;10427871;28;20103;-24
2023/03/07 06:52:52;;;;;;;6.50;0.90;;;14.60;75.40;;;;;;10412683;28;20115;-26
2023/03/07 06:57:54;;;;;;;2.70;0.52;;;13.50;71.50;;;;;;10418412;28;20052;-24
2023/03/07 07:15:22;;;;;;;5.80;0.85;;;14.20;87.30;;;;;;10513256;27;20130;-28
2023/03/07 07:20:24;;;;;;;5.97;0.70;;;13.60;81.70;;;;;;10476041;28;20127;-23
2023/03/07 07:25:26;;;;;;;7.07;0.70;;;15.70;74.10;;;;;;10488556;28;20576;-24
2023/03/07 07:30:29;;;;;;;6.30;0.87;;;14.60;75.40;;;;;;10481294;28;20083;-23
2023/03/07 07:35:31;;;;;;;12.20;2.15;;;14.30;82.30;;;;;;10483202;28;20602;-24
2023/03/07 07:40:33;;;;;;;12.53;1.23;;;12.50;93.00;;;;;;10488045;28;20066;-25
2023/03/07 07:45:37;;;;;;;6.93;1.33;;;16.10;70.10;;;;;;10481530;28;20094;-24
2023/03/07 07:50:39;;;;;;;6.65;0.60;;;15.60;72.30;;;;;;10482792;28;20052;-24
2023/03/07 07:55:41;;;;;;;12.70;1.50;;;15.70;73.60;;;;;;10480628;28;20062;-23
2023/03/07 08:00:44;;;;;;;9.50;1.97;;;16.30;68.40;;;;;;10479287;28;20129;-23
2023/03/07 08:05:48;;;;;;;19.20;1.52;;;13.10;94.50;;;;;;10474063;28;20148;-23
2023/03/07 08:10:50;;;;;;;39.25;4.22;;;13.60;93.50;;;;;;10483425;28;20060;-23
2023/03/07 08:15:53;;;;;;;29.77;3.60;;;13.80;93.20;;;;;;10485550;28;20045;-21
2023/03/07 08:20:59;;;;;;;30.63;3.42;;;12.10;74.80;;;;;;10478599;28;20051;-23
2023/03/07 08:26:05;;;;;;;42.20;4.22;;;12.50;98.20;;;;;;10459356;28;20131;-21
2023/03/07 08:31:09;;;;;;;44.05;4.45;;;14.00;84.80;;;;;;10452201;28;20087;-23
2023/03/07 08:36:11;;;;;;;44.63;4.28;;;14.50;87.00;;;;;;10457290;28;20076;-25
2023/03/07 08:41:13;;;;;;;43.37;3.40;;;13.20;92.10;;;;;;10448815;28;20127;-24
2023/03/07 08:46:16;;;;;;;17.40;1.50;;;13.40;92.90;;;;;;10450140;28;20066;-24
2023/03/07 08:51:18;;;;;;;62.85;5.30;;;11.90;94.10;;;;;;10449257;28;20128;-25
2023/03/07 08:56:20;;;;;;;56.83;3.83;;;14.70;86.90;;;;;;10438545;28;20120;-23
2023/03/07 09:01:24;;;;;;;56.73;3.50;;;11.90;92.70;;;;;;10445716;28;20041;-24
2023/03/07 09:06:25;;;;;;;78.05;7.80;;;12.00;99.90;;;;;;10442415;28;20138;-24
2023/03/07 09:11:28;;;;;;;15.77;1.83;;;14.10;92.10;;;;;;10443410;28;20088;-22
2023/03/07 09:16:32;;;;;;;42.65;4.25;;;10.50;98.20;;;;;;10440866;28;20041;-22
2023/03/07 09:21:34;;;;;;;125.50;8.38;;;10.90;99.90;;;;;;10448746;28;20056;-23
2023/03/07 09:26:36;;;;;;;92.20;8.60;;;13.70;93.50;;;;;;10447746;28;20095;-23
2023/03/07 09:31:40;;;;;;;152.98;11.32;;;11.20;99.90;;;;;;10450035;28;20103;-23
2023/03/07 09:36:42;;;;;;;54.03;5.28;;;13.90;94.30;;;;;;10447830;28;20382;-24
2023/03/07 09:42:06;;;;;;;153.63;12.48;;;12.70;71.60;;;;;;10447670;28;20140;-24
2023/03/07 09:47:30;;;;;;;47.92;8.25;;;14.00;92.80;;;;;;10448868;28;20051;-25
2023/03/07 09:52:37;;;;;;;133.25;14.40;;;13.50;92.20;;;;;;10447634;28;20053;-25
2023/03/07 09:57:49;;;;;;;114.35;14.30;;;13.70;95.60;;;;;;10449760;28;20064;-24
2023/03/07 10:02:56;;;;;;;24.70;2.75;;;11.90;99.90;;;;;;10444770;28;20051;-25
2023/03/07 10:08:00;;;;;;;128.77;17.45;;;12.50;90.50;;;;;;10453082;28;20127;-23
2023/03/07 10:13:18;;;;;;;10.73;2.00;;;12.80;98.70;;;;;;10458051;28;20079;-22
2023/03/07 10:18:37;;;;;;;216.80;28.27;;;12.30;99.30;;;;;;10448080;28;20040;-24
2023/03/07 10:24:11;;;;;;;227.13;31.00;;;14.20;91.90;;;;;;10441698;28;20470;-23
2023/03/07 10:29:14;;;;;;;;;;;14.70;90.20;;;;;;10446472;28;20079;-23
2023/03/07 10:34:23;;;;;;;113.75;18.00;;;15.30;88.30;;;;;;10449640;28;19920;-24
2023/03/07 10:39:30;;;;;;;193.70;26.02;;;15.10;83.50;;;;;;10448080;28;20041;-24
2023/03/07 10:44:34;;;;;;;152.02;22.13;;;14.00;96.70;;;;;;10445702;28;20111;-23
2023/03/07 10:49:44;;;;;;;79.75;12.40;;;14.40;94.40;;;;;;10426656;28;20092;-21
2023/03/07 10:54:46;;;;;;;159.95;23.70;;;12.30;99.00;;;;;;10432982;28;20471;-22
2023/03/07 10:59:49;;;;;;;147.17;21.67;;;14.90;91.80;;;;;;10438331;28;20664;-22
2023/03/07 11:04:53;;;;;;;151.30;24.80;;;14.80;90.40;;;;;;10447457;28;20076;-23
2023/03/07 11:09:56;;;;;;;161.23;23.60;;;14.90;82.60;;;;;;10448928;28;20453;-24
2023/03/07 11:15:11;;;;;;;160.02;21.58;;;14.80;92.20;;;;;;10449236;28;20052;-24
2023/03/07 11:20:23;;;;;;;138.88;20.85;;;14.60;93.40;;;;;;10449506;28;20044;-24
2023/03/07 11:25:26;;;;;;;88.68;11.65;;;13.90;95.30;;;;;;10445769;28;20124;-24
2023/03/07 11:30:30;;;;;;;166.20;20.88;;;14.00;90.40;;;;;;10439381;28;20520;-25
2023/03/07 11:35:55;;;;;;;159.38;19.52;;;14.70;92.10;;;;;;10445641;28;20397;-25
2023/03/07 11:41:02;;;;;;;116.07;16.70;;;12.80;99.20;;;;;;10447442;28;20117;-25
2023/03/07 11:46:11;;;;;;;155.15;19.35;;;13.30;68.30;;;;;;10459503;28;20047;-23
2023/03/07 11:51:41;;;;;;;59.10;9.50;;;13.40;93.60;;;;;;10453412;28;20036;-23
2023/03/07 11:56:50;;;;;;;50.42;8.05;;;13.10;96.70;;;;;;10444877;28;20118;-24
2023/03/07 12:01:55;;;;;;;33.42;4.68;;;9.60;99.90;;;;;;10458688;28;20041;-26
2023/03/07 12:07:11;;;;;;;2.92;1.02;;;9.80;95.20;;;;;;10448153;28;20593;-24
2023/03/07 12:12:39;;;;;;;82.32;12.07;;;10.30;99.90;;;;;;10458150;28;20048;-24
2023/03/07 12:17:53;;;;;;;67.82;10.45;;;14.00;94.40;;;;;;10443858;28;20977;-25
2023/03/07 12:23:10;;;;;;;79.03;10.93;;;13.50;73.90;;;;;;10453167;28;20053;-24
2023/03/07 12:28:20;;;;;;;66.40;7.40;;;13.50;96.40;;;;;;10450804;28;20045;-23
2023/03/07 12:33:29;;;;;;;24.58;3.55;;;12.90;95.20;;;;;;10452788;28;20140;-24
2023/03/07 12:38:40;;;;;;;116.22;15.43;;;10.00;99.90;;;;;;10453426;28;20037;-23
2023/03/07 12:43:46;;;;;;;30.27;4.28;;;11.40;99.90;;;;;;10450535;28;20041;-25
2023/03/07 12:48:56;;;;;;;70.50;9.57;;;11.80;94.80;;;;;;10463395;28;20049;-24
2023/03/07 12:54:08;;;;;;;120.97;14.82;;;10.80;99.90;;;;;;10453323;28;20040;-22
2023/03/07 12:59:12;;;;;;;128.93;14.68;;;12.80;97.00;;;;;;10451364;28;20438;-23
2023/03/07 13:04:18;;;;;;;90.72;13.70;;;14.80;91.50;;;;;;10451476;28;20077;-23
2023/03/07 13:09:24;;;;;;;126.25;16.33;;;14.90;89.60;;;;;;10453105;28;20064;-23
2023/03/07 13:14:40;;;;;;;107.50;14.43;;;14.70;91.00;;;;;;10448467;28;20371;-22
2023/03/07 13:19:56;;;;;;;25.48;5.57;;;14.60;90.70;;;;;;10444612;28;20081;-22
2023/03/07 13:25:39;;;;;;;94.93;10.70;;;12.10;98.70;;;;;;10451095;28;20119;-28
2023/03/07 13:31:13;;;;;;;166.20;17.98;;;14.20;93.10;;;;;;10452386;28;20044;-23
2023/03/07 13:36:31;;;;;;;143.13;18.95;;;14.00;92.50;;;;;;10460861;28;20708;-23
2023/03/07 13:41:46;;;;;;;94.32;14.10;;;15.20;79.40;;;;;;10452380;28;20059;-23
2023/03/07 13:47:01;;;;;;;114.00;17.77;;;13.60;93.10;;;;;;10450077;28;20106;-25
2023/03/07 13:52:44;;;;;;;25.35;4.60;;;14.20;88.20;;;;;;10445575;28;20384;-25
2023/03/07 13:57:46;;;;;;;82.60;9.80;;;12.70;95.40;;;;;;10444445;28;20048;-23
2023/03/07 14:02:51;;;;;;;276.10;28.30;;;12.50;96.90;;;;;;10448578;28;20132;-26
2023/03/07 14:07:53;;;;;;;601.03;53.33;;;13.70;93.40;;;;;;10449678;28;20037;-26
2023/03/07 14:13:17;;;;;;;489.42;42.08;;;15.30;87.10;;;;;;10454992;28;20080;-23
2023/03/07 14:18:32;;;;;;;366.92;31.58;;;15.10;80.30;;;;;;10448507;28;20068;-24
2023/03/07 14:23:59;;;;;;;165.65;17.02;;;14.80;88.40;;;;;;10443286;28;20466;-22
2023/03/07 14:29:03;;;;;;;336.60;27.88;;;16.30;72.30;;;;;;10454494;28;20049;-23
2023/03/07 14:34:18;;;;;;;77.00;9.05;;;16.20;72.20;;;;;;10448099;28;20036;-24
2023/03/07 14:39:21;;;;;;;66.85;9.20;;;13.50;76.20;;;;;;10443674;28;20461;-24
2023/03/07 14:44:38;;;;;;;41.63;5.30;;;13.70;90.20;;;;;;10445714;28;20033;-25
2023/03/07 14:49:49;;;;;;;141.95;12.90;;;13.90;77.10;;;;;;10445213;28;20120;-25
2023/03/07 14:54:51;;;;;;;123.55;14.63;;;15.30;78.40;;;;;;10450521;28;20083;-24
2023/03/07 15:00:11;;;;;;;;;;;16.10;63.80;;;;;;10437334;28;20049;-25
2023/03/07 15:05:17;;;;;;;79.43;9.95;;;16.10;70.40;;;;;;10449376;28;19952;-22
2023/03/07 15:10:22;;;;;;;76.57;8.00;;;16.80;66.10;;;;;;10446555;28;20099;-23
2023/03/07 15:15:29;;;;;;;36.42;4.18;;;15.70;60.30;;;;;;10455108;28;20052;-25
2023/03/07 15:20:33;;;;;;;26.08;3.05;;;11.50;98.40;;;;;;10445279;28;20071;-24
2023/03/07 15:25:37;;;;;;;49.88;7.18;;;12.00;96.50;;;;;;10449252;28;20068;-24
2023/03/07 15:30:39;;;;;;;18.38;3.03;;;12.20;99.90;;;;;;10444370;28;20053;-24
2023/03/07 15:35:43;;;;;;;36.93;4.07;;;12.20;97.40;;;;;;10451170;28;20091;-24
2023/03/07 15:40:45;;;;;;;75.90;7.30;;;14.80;85.30;;;;;;10455019;28;20517;-26
2023/03/07 15:46:00;;;;;;;;;;;15.20;85.30;;;;;;10459025;28;20126;-25
2023/03/07 15:51:05;;;;;;;64.72;7.68;;;14.80;88.30;;;;;;10462642;28;19920;-24
2023/03/07 15:56:22;;;;;;;44.85;3.92;;;14.30;91.20;;;;;;10458950;28;20054;-23
2023/03/07 16:01:26;;;;;;;28.88;4.63;;;11.80;98.10;;;;;;10458575;28;20048;-24
2023/03/07 16:06:40;;;;;;;43.03;4.80;;;11.40;99.90;;;;;;10430854;28;20050;-25
2023/03/07 16:11:42;;;;;;;30.25;2.83;;;12.30;99.90;;;;;;10451172;28;20469;-23
2023/03/07 16:16:44;;;;;;;33.08;3.80;;;12.00;77.10;;;;;;10458960;28;20884;-23
2023/03/07 16:21:48;;;;;;;25.60;2.63;;;13.10;96.70;;;;;;10451703;28;20040;-23
2023/03/07 16:26:50;;;;;;;26.08;3.72;;;10.80;77.70;;;;;;10454826;28;20095;-23
2023/03/07 16:31:52;;;;;;;29.87;2.83;;;11.80;99.90;;;;;;10450169;28;20036;-23
2023/03/07 16:36:56;;;;;;;28.73;3.03;;;9.90;99.90;;;;;;10453033;28;20535;-25
2023/03/07 16:41:58;;;;;;;7.38;1.52;;;12.90;97.10;;;;;;10450117;28;20556;-24
2023/03/07 16:47:06;;;;;;;19.67;2.10;;;11.20;99.10;;;;;;10447415;28;20156;-24
2023/03/07 16:52:12;;;;;;;15.32;1.42;;;10.90;99.90;;;;;;10448475;28;20032;-24
2023/03/07 16:57:16;;;;;;;10.25;1.30;;;9.70;90.70;;;;;;10449445;28;20043;-25
2023/03/07 17:02:20;;;;;;;5.72;1.00;;;10.80;99.90;;;;;;10457057;28;20132;-24
2023/03/07 17:07:25;;;;;;;4.60;1.00;;;11.60;99.90;;;;;;10455398;28;20044;-23
2023/03/07 17:12:27;;;;;;;12.13;2.17;;;12.30;97.00;;;;;;10451725;28;20394;-25
2023/03/07 17:17:33;;;;;;;4.87;1.00;;;11.80;72.40;;;;;;10451318;28;20041;-23
2023/03/07 17:22:36;;;;;;;14.23;1.52;;;13.90;82.90;;;;;;10452249;28;20129;-25
2023/03/07 17:27:41;;;;;;;37.28;3.22;;;13.60;91.90;;;;;;10451982;28;20051;-22
2023/03/07 17:32:44;;;;;;;11.10;1.55;;;13.10;95.40;;;;;;10455815;28;20059;-22
2023/03/07 17:37:50;;;;;;;16.70;3.00;;;9.40;70.20;;;;;;10447711;28;20045;-23
2023/03/07 17:42:53;;;;;;;21.15;3.47;;;10.70;99.90;;;;;;10439416;28;20045;-22
2023/03/07 17:47:55;;;;;;;39.60;4.35;;;9.80;99.90;;;;;;10454424;28;20037;-24
2023/03/07 17:52:58;;;;;;;47.67;5.78;;;9.60;99.90;;;;;;10441892;28;20037;-23
2023/03/07 17:58:00;;;;;;;17.35;2.55;;;11.50;87.90;;;;;;10450595;28;20068;-24
2023/03/07 18:03:02;;;;;;;21.77;2.83;;;11.60;99.90;;;;;;10448639;28;20086;-23
2023/03/07 18:08:06;;;;;;;21.20;3.73;;;13.50;68.90;;;;;;10449490;28;20056;-23
2023/03/07 18:13:08;;;;;;;38.10;3.47;;;13.50;60.50;;;;;;10449797;28;20080;-23
2023/03/07 18:18:10;;;;;;;40.13;5.07;;;12.10;99.50;;;;;;10446191;28;20123;-24
2023/03/07 18:23:13;;;;;;;16.42;1.60;;;11.60;78.70;;;;;;10443734;28;20049;-24
2023/03/07 18:28:15;;;;;;;12.10;2.05;;;13.40;75.10;;;;;;10448439;28;20040;-24
2023/03/07 18:33:17;;;;;;;33.57;3.97;;;13.10;91.60;;;;;;10447546;28;20134;-22
2023/03/07 18:38:21;;;;;;;45.55;6.55;;;10.90;99.90;;;;;;10445233;28;20044;-23
2023/03/07 18:43:23;;;;;;;34.25;3.33;;;11.70;99.90;;;;;;10442117;28;20131;-23
2023/03/07 18:48:25;;;;;;;36.50;4.13;;;10.50;99.90;;;;;;10441528;28;20094;-24
2023/03/07 18:53:29;;;;;;;14.40;1.33;;;9.40;99.90;;;;;;10443405;28;20474;-22
2023/03/07 18:58:31;;;;;;;46.15;5.20;;;10.00;99.90;;;;;;10443959;28;20087;-24
2023/03/07 19:03:33;;;;;;;23.95;2.67;;;11.40;99.90;;;;;;10443926;28;20123;-24
2023/03/07 19:08:36;;;;;;;17.08;2.17;;;10.00;97.80;;;;;;10448455;28;20032;-23
2023/03/07 19:13:39;;;;;;;36.30;4.00;;;7.70;94.90;;;;;;10444771;28;20630;-22
2023/03/07 19:18:42;;;;;;;15.55;1.38;;;10.60;99.90;;;;;;10444654;28;20496;-23
2023/03/07 19:23:46;;;;;;;24.73;4.95;;;8.70;99.90;;;;;;10454520;28;20500;-23
2023/03/07 19:28:49;;;;;;;24.38;3.30;;;12.60;99.90;;;;;;10452043;28;20049;-24
2023/03/07 19:33:52;;;;;;;39.97;6.32;;;12.30;99.90;;;;;;10443612;28;20231;-24
2023/03/07 19:38:57;;;;;;;13.85;2.65;;;12.70;93.00;;;;;;10440042;28;20152;-26
2023/03/07 19:44:00;;;;;;;47.38;5.05;;;10.40;99.90;;;;;;10442812;28;20040;-23
2023/03/07 19:49:02;;;;;;;28.52;3.72;;;13.40;97.50;;;;;;10431845;28;20428;-23
2023/03/07 19:54:07;;;;;;;26.20;4.17;;;13.40;74.50;;;;;;10445042;28;20510;-25
2023/03/07 19:59:09;;;;;;;18.35;3.60;;;13.50;96.00;;;;;;10445287;28;20045;-23
2023/03/07 20:04:11;;;;;;;18.60;4.10;;;13.30;94.10;;;;;;10442722;28;20351;-23
2023/03/07 20:09:15;;;;;;;3.80;1.27;;;12.90;98.20;;;;;;10445147;28;20119;-23
2023/03/07 20:14:16;;;;;;;21.00;3.85;;;11.70;76.70;;;;;;10441630;28;20500;-24
2023/03/07 20:19:19;;;;;;;11.68;1.92;;;11.80;99.30;;;;;;10441924;28;20099;-22
2023/03/07 20:24:22;;;;;;;28.95;5.07;;;10.70;99.90;;;;;;10449654;28;20049;-27
2023/03/07 20:29:24;;;;;;;13.05;2.90;;;14.10;87.90;;;;;;10451663;28;20045;-24
2023/03/07 20:34:30;;;;;;;6.40;1.33;;;9.90;87.70;;;;;;10451056;28;20068;-24
2023/03/07 20:39:34;;;;;;;20.85;2.90;;;9.90;99.90;;;;;;10450010;28;20509;-22
2023/03/07 20:44:37;;;;;;;16.92;3.08;;;9.80;91.90;;;;;;10451924;28;20152;-23
2023/03/07 20:49:38;;;;;;;26.70;3.40;;;13.00;95.00;;;;;;10448070;28;20044;-24
2023/03/07 20:54:42;;;;;;;18.43;3.00;;;14.90;67.70;;;;;;10449297;28;20084;-25
2023/03/07 20:59:44;;;;;;;11.50;2.08;;;14.20;83.20;;;;;;10448773;28;20049;-23
2023/03/07 21:04:46;;;;;;;14.50;2.17;;;15.60;70.30;;;;;;10447235;28;20045;-25
2023/03/07 21:09:50;;;;;;;18.07;2.07;;;15.80;67.00;;;;;;10447022;28;20036;-24
2023/03/07 21:14:52;;;;;;;11.52;2.15;;;15.90;68.30;;;;;;10448149;28;20056;-23
2023/03/07 21:19:54;;;;;;;9.23;2.07;;;15.80;67.40;;;;;;10445398;28;20432;-23
2023/03/07 21:24:57;;;;;;;12.77;2.15;;;15.90;66.10;;;;;;10445020;28;20072;-22
2023/03/07 21:29:59;;;;;;;15.82;1.90;;;16.50;64.20;;;;;;10446475;28;20037;-24
2023/03/07 21:35:03;;;;;;;6.40;1.23;;;16.60;62.60;;;;;;10445174;28;20470;-23
2023/03/07 21:40:07;;;;;;;11.90;2.08;;;16.40;61.10;;;;;;10443732;28;20048;-25
2023/03/07 21:45:11;;;;;;;10.13;1.60;;;16.80;62.00;;;;;;10443222;28;20120;-23
2023/03/07 21:50:12;;;;;;;15.52;2.25;;;16.70;62.10;;;;;;10446449;28;20049;-24
2023/03/07 21:55:16;;;;;;;11.90;1.63;;;16.80;61.60;;;;;;10446239;28;20041;-22
2023/03/07 22:00:19;;;;;;;11.80;1.58;;;16.80;61.70;;;;;;10448294;28;20065;-24
2023/03/07 22:05:22;;;;;;;7.90;1.40;;;16.80;62.90;;;;;;10447904;28;20046;-24
2023/03/07 22:10:25;;;;;;;10.23;1.48;;;16.70;62.60;;;;;;10450200;28;20834;-24
2023/03/07 22:15:27;;;;;;;10.65;2.13;;;16.70;62.10;;;;;;10447641;28;20381;-25
2023/03/07 22:20:29;;;;;;;9.80;1.98;;;16.60;62.20;;;;;;10445471;28;20382;-24
2023/03/07 22:25:33;;;;;;;11.73;1.20;;;16.40;63.50;;;;;;10445542;28;20128;-23
2023/03/07 22:30:36;;;;;;;13.07;1.83;;;16.40;63.30;;;;;;10445905;28;20396;-21
2023/03/07 22:35:37;;;;;;;16.40;2.25;;;16.40;63.20;;;;;;10443339;28;20144;-23
2023/03/07 22:40:41;;;;;;;13.90;2.33;;;16.20;64.10;;;;;;10434373;28;20041;-23
2023/03/07 22:45:48;;;;;;;15.52;1.92;;;15.50;68.20;;;;;;10418601;28;20136;-24
2023/03/07 22:50:49;;;;;;;14.52;1.60;;;16.00;65.70;;;;;;10445000;28;20076;-23
2023/03/07 22:55:53;;;;;;;6.23;1.43;;;15.90;66.60;;;;;;10445206;28;20750;-24
2023/03/07 23:00:55;;;;;;;11.52;1.60;;;16.00;65.30;;;;;;10441690;28;20131;-23
2023/03/07 23:06:00;;;;;;;8.82;1.58;;;16.00;65.60;;;;;;10453809;28;20052;-25
2023/03/07 23:11:06;;;;;;;11.95;2.55;;;16.00;65.30;;;;;;10438987;28;20041;-26
2023/03/07 23:16:10;;;;;;;14.70;1.80;;;16.00;65.60;;;;;;10441254;28;20094;-25
2023/03/07 23:21:15;;;;;;;7.53;1.40;;;15.90;66.10;;;;;;10443097;28;20465;-23
2023/03/07 23:26:23;;;;;;;7.53;1.63;;;15.90;66.40;;;;;;10437371;28;20041;-24
2023/03/07 23:31:28;;;;;;;7.65;1.23;;;15.90;66.30;;;;;;10444024;28;20068;-27
2023/03/07 23:36:31;;;;;;;11.20;1.80;;;15.90;66.60;;;;;;10441478;28;20148;-22
2023/03/07 23:41:34;;;;;;;5.05;1.58;;;15.80;67.20;;;;;;10444855;28;20073;-24
2023/03/07 23:46:36;;;;;;;8.27;1.52;;;15.70;67.60;;;;;;10445571;28;20057;-25
2023/03/07 23:51:38;;;;;;;4.87;1.20;;;15.70;67.50;;;;;;10448023;28;20136;-25
2023/03/07 23:56:41;;;;;;;9.30;1.43;;;15.80;67.50;;;;;;10450206;28;20473;-23
